Time;durP1;ratioP1;P1;durP2;ratioP2;P2;SDS_P1;SDS_P2;PMS_P1;PMS_P2;Temp;Humidity;BMP_temperature;BMP_pressure;BME280_temperature;BME280_humidity;BME280_pressure;Samples;Min_cycle;Max_cycle;Signal;HPM_P1;HPM_P2
2021/05/31 00:00:36;;;;;;;6.05;3.10;;;14.50;99.90;;;;;;4893554;29;20531;-64
2021/05/31 00:03:03;;;;;;;7.70;3.63;;;14.50;99.90;;;;;;4895894;29;20043;-64
2021/05/31 00:05:31;;;;;;;6.05;3.08;;;14.50;99.90;;;;;;4895124;29;20096;-64
2021/05/31 00:07:58;;;;;;;5.22;2.78;;;14.50;99.90;;;;;;4893754;29;20530;-64
2021/05/31 00:10:26;;;;;;;7.13;3.67;;;14.50;99.90;;;;;;4894795;29;20544;-64
2021/05/31 00:12:53;;;;;;;6.05;3.35;;;14.50;99.90;;;;;;4897591;29;20425;-64
2021/05/31 00:15:20;;;;;;;6.22;3.70;;;14.50;99.90;;;;;;4894433;29;20040;-64
2021/05/31 00:17:48;;;;;;;9.50;4.07;;;14.50;99.90;;;;;;4890859;29;20048;-64
2021/05/31 00:20:17;;;;;;;6.82;3.47;;;14.50;99.90;;;;;;4895007;29;20108;-64
2021/05/31 00:22:45;;;;;;;8.50;3.72;;;14.50;99.90;;;;;;4893746;29;20053;-64
2021/05/31 00:25:13;;;;;;;7.35;4.00;;;14.50;99.90;;;;;;4893945;29;20523;-64
2021/05/31 00:27:40;;;;;;;8.35;4.35;;;14.40;99.90;;;;;;4895309;29;20052;-64
2021/05/31 00:30:09;;;;;;;8.75;4.22;;;14.40;99.90;;;;;;4909826;29;20053;-64
2021/05/31 00:32:36;;;;;;;10.63;4.75;;;14.40;99.90;;;;;;4896300;29;20496;-64
2021/05/31 00:35:05;;;;;;;8.70;4.78;;;14.50;99.90;;;;;;4895496;29;20056;-64
2021/05/31 00:37:32;;;;;;;10.32;4.47;;;14.40;99.90;;;;;;4893993;29;20044;-64
2021/05/31 00:39:59;;;;;;;7.88;4.80;;;14.40;99.90;;;;;;4895517;29;20457;-64
2021/05/31 00:42:26;;;;;;;10.43;4.53;;;14.40;99.90;;;;;;4895246;29;20052;-64
2021/05/31 00:44:53;;;;;;;12.13;5.38;;;14.40;99.90;;;;;;4910412;29;20044;-64
2021/05/31 00:47:20;;;;;;;11.68;5.28;;;14.40;99.90;;;;;;4887698;29;20461;-64
2021/05/31 00:49:47;;;;;;;9.68;4.57;;;14.40;99.90;;;;;;4889590;29;20128;-64
2021/05/31 00:52:15;;;;;;;10.55;5.03;;;14.30;99.90;;;;;;4895409;29;20101;-64
2021/05/31 00:54:43;;;;;;;8.65;4.22;;;14.30;99.90;;;;;;4894672;29;20036;-64
2021/05/31 00:57:10;;;;;;;8.73;4.78;;;14.30;99.90;;;;;;4908517;29;20512;-64
2021/05/31 00:59:37;;;;;;;10.15;4.40;;;14.20;99.90;;;;;;4892997;29;20049;-65
2021/05/31 01:02:04;;;;;;;10.43;4.72;;;14.20;99.90;;;;;;4893730;29;20078;-64
2021/05/31 01:04:31;;;;;;;10.40;4.60;;;14.20;99.90;;;;;;4895593;29;20056;-64
2021/05/31 01:07:25;;;;;;;9.77;5.22;;;14.20;99.90;;;;;;4895701;29;20049;-64
2021/05/31 01:10:03;;;;;;;10.05;3.92;;;14.20;99.90;;;;;;4902141;29;20045;-64
2021/05/31 01:13:01;;;;;;;9.85;4.53;;;14.20;99.90;;;;;;4893232;29;20415;-64
2021/05/31 01:15:33;;;;;;;9.75;4.43;;;14.20;99.90;;;;;;4886301;29;20738;-64
2021/05/31 01:18:06;;;;;;;;;;;14.30;99.90;;;;;;4895293;29;20055;-64
2021/05/31 01:21:18;;;;;;;7.50;3.90;;;14.30;99.90;;;;;;4897922;29;19934;-64
2021/05/31 01:23:50;;;;;;;8.68;4.05;;;14.30;99.90;;;;;;4844117;29;20072;-64
2021/05/31 01:26:19;;;;;;;;;;;14.30;99.90;;;;;;4828579;29;20058;-64
2021/05/31 01:29:01;;;;;;;7.57;3.97;;;14.30;99.90;;;;;;4850430;29;19964;-64
2021/05/31 01:31:53;;;;;;;10.68;4.88;;;14.30;99.90;;;;;;4844021;29;20094;-64
2021/05/31 01:34:23;;;;;;;8.13;4.03;;;14.30;99.90;;;;;;4852225;29;20145;-64
2021/05/31 01:37:01;;;;;;;8.40;3.90;;;14.30;99.90;;;;;;4828861;29;20049;-64
2021/05/31 01:39:34;;;;;;;10.95;4.18;;;14.30;99.90;;;;;;4830667;29;20057;-64
2021/05/31 01:42:02;;;;;;;9.85;4.00;;;14.30;99.90;;;;;;4820255;29;20511;-65
2021/05/31 01:44:29;;;;;;;9.07;4.70;;;14.30;99.90;;;;;;4818748;29;20065;-64
2021/05/31 01:46:57;;;;;;;10.95;4.38;;;14.40;99.90;;;;;;4839612;29;20062;-64
2021/05/31 01:49:24;;;;;;;8.32;4.88;;;14.40;99.90;;;;;;4843223;29;20054;-64
2021/05/31 01:51:52;;;;;;;7.78;3.97;;;14.40;99.90;;;;;;4838870;29;20046;-64
2021/05/31 01:54:21;;;;;;;8.65;4.43;;;14.40;99.90;;;;;;4849774;29;20073;-64
2021/05/31 01:56:50;;;;;;;7.55;3.70;;;14.30;99.90;;;;;;4849983;29;20061;-64
2021/05/31 01:59:21;;;;;;;8.20;4.47;;;14.40;99.90;;;;;;4851129;29;20053;-64
2021/05/31 02:01:49;;;;;;;11.63;4.85;;;14.30;99.90;;;;;;4897474;29;20045;-64
2021/05/31 02:04:16;;;;;;;9.00;4.65;;;14.30;99.90;;;;;;4899553;29;20127;-64
2021/05/31 02:06:43;;;;;;;10.05;4.97;;;14.30;99.90;;;;;;4904429;29;20053;-64
2021/05/31 02:09:11;;;;;;;10.60;4.85;;;14.30;99.90;;;;;;4899328;29;20045;-64
2021/05/31 02:11:59;;;;;;;7.95;4.15;;;14.30;99.90;;;;;;4898978;29;20040;-64
2021/05/31 02:14:36;;;;;;;11.43;5.15;;;14.30;99.90;;;;;;4894318;29;20102;-64
2021/05/31 02:17:30;;;;;;;9.55;4.28;;;14.30;99.90;;;;;;4896827;29;20081;-64
2021/05/31 02:20:06;;;;;;;8.93;4.53;;;14.30;99.90;;;;;;4897451;29;20131;-64
2021/05/31 02:22:47;;;;;;;10.25;4.93;;;14.30;99.90;;;;;;4898126;29;20037;-64
2021/05/31 02:25:15;;;;;;;9.45;4.55;;;14.30;99.90;;;;;;4885081;29;20088;-64
2021/05/31 02:27:47;;;;;;;11.07;5.10;;;14.30;99.90;;;;;;4896071;29;20108;-64
2021/05/31 02:30:16;;;;;;;9.30;4.80;;;14.30;99.90;;;;;;4895259;29;20052;-64
2021/05/31 02:33:10;;;;;;;8.75;4.13;;;14.30;99.90;;;;;;4896047;29;20140;-64
2021/05/31 02:35:38;;;;;;;9.70;4.90;;;14.30;99.90;;;;;;4895546;29;20525;-64
2021/05/31 02:38:07;;;;;;;10.52;5.15;;;14.30;99.90;;;;;;4899174;29;20041;-65
2021/05/31 02:40:36;;;;;;;9.38;4.70;;;14.30;99.90;;;;;;4895480;29;20051;-64
2021/05/31 02:43:05;;;;;;;8.07;4.25;;;14.30;99.90;;;;;;4890999;29;20056;-64
2021/05/31 02:45:33;;;;;;;9.38;4.22;;;14.20;99.90;;;;;;4895417;29;20055;-64
2021/05/31 02:48:00;;;;;;;9.13;4.45;;;14.20;99.90;;;;;;4895329;29;20049;-64
2021/05/31 02:50:28;;;;;;;9.68;4.22;;;14.20;99.90;;;;;;4898154;29;20059;-64
2021/05/31 02:52:56;;;;;;;9.13;4.55;;;14.20;99.90;;;;;;4896749;29;20041;-64
2021/05/31 02:55:26;;;;;;;8.73;5.10;;;14.20;99.90;;;;;;4898963;29;20043;-64
2021/05/31 02:57:54;;;;;;;7.63;4.00;;;14.20;99.90;;;;;;4898079;29;20040;-64
2021/05/31 03:00:24;;;;;;;11.90;4.72;;;14.20;99.90;;;;;;4910401;29;20040;-64
2021/05/31 03:02:51;;;;;;;10.32;4.78;;;14.20;99.90;;;;;;4895604;29;20886;-64
2021/05/31 03:05:26;;;;;;;9.50;4.65;;;14.20;99.90;;;;;;4897490;29;20041;-64
2021/05/31 03:07:53;;;;;;;9.85;3.97;;;14.20;99.90;;;;;;4895772;29;20044;-64
2021/05/31 03:10:20;;;;;;;12.02;4.68;;;14.20;99.90;;;;;;4893776;29;20116;-64
2021/05/31 03:12:47;;;;;;;8.25;3.47;;;14.20;99.90;;;;;;4897767;29;20441;-64
2021/05/31 03:15:17;;;;;;;9.30;4.80;;;14.20;99.90;;;;;;4894546;29;20477;-64
2021/05/31 03:17:49;;;;;;;9.65;4.22;;;14.20;99.90;;;;;;4899020;29;20065;-64
2021/05/31 03:20:17;;;;;;;8.67;4.37;;;14.20;99.90;;;;;;4897658;29;20052;-64
2021/05/31 03:22:44;;;;;;;11.73;4.15;;;14.30;99.90;;;;;;4896943;29;20068;-64
2021/05/31 03:25:13;;;;;;;10.65;4.00;;;14.20;99.90;;;;;;4896090;29;20048;-64
2021/05/31 03:27:40;;;;;;;9.35;3.92;;;14.20;99.90;;;;;;4879828;29;20472;-64
2021/05/31 03:30:11;;;;;;;7.97;4.03;;;14.20;99.90;;;;;;4919247;29;20119;-64
2021/05/31 03:32:38;;;;;;;8.68;3.90;;;14.20;99.90;;;;;;4896063;29;20416;-64
2021/05/31 03:35:07;;;;;;;9.48;3.95;;;14.20;99.90;;;;;;4897187;29;20044;-64
2021/05/31 03:37:34;;;;;;;9.55;4.43;;;14.20;99.90;;;;;;4898238;29;20044;-64
2021/05/31 03:40:03;;;;;;;8.57;3.97;;;14.20;99.90;;;;;;4894497;29;20045;-64
2021/05/31 03:42:30;;;;;;;8.77;4.32;;;14.20;99.90;;;;;;4873778;29;20053;-64
2021/05/31 03:44:57;;;;;;;9.65;4.47;;;14.30;99.90;;;;;;4899577;29;20453;-64
2021/05/31 03:47:24;;;;;;;8.02;4.57;;;14.20;99.90;;;;;;4895617;29;20449;-64
2021/05/31 03:49:51;;;;;;;10.13;4.30;;;14.30;99.90;;;;;;4895926;29;20059;-64
2021/05/31 03:52:18;;;;;;;7.63;4.30;;;14.30;99.90;;;;;;4895019;29;20104;-64
2021/05/31 03:54:47;;;;;;;10.20;4.38;;;14.30;99.90;;;;;;4892001;29;20044;-64
2021/05/31 03:57:14;;;;;;;6.85;3.63;;;14.30;99.90;;;;;;4895239;29;20036;-64
2021/05/31 03:59:41;;;;;;;8.00;3.90;;;14.30;99.90;;;;;;4878919;29;20047;-64
2021/05/31 04:02:08;;;;;;;8.65;3.97;;;14.30;99.90;;;;;;4895577;29;20037;-64
2021/05/31 04:04:42;;;;;;;8.50;4.38;;;14.40;99.90;;;;;;4893379;29;20055;-64
2021/05/31 04:12:41;;;;;;;7.05;3.40;;;14.40;99.90;;;;;;4895386;29;20071;-64
2021/05/31 04:15:08;;;;;;;7.88;3.92;;;14.50;99.90;;;;;;4895698;29;20051;-64
2021/05/31 04:17:35;;;;;;;7.65;3.72;;;14.50;99.90;;;;;;4893921;29;20104;-64
2021/05/31 04:20:03;;;;;;;7.45;3.60;;;14.50;99.90;;;;;;4894721;29;20511;-65
2021/05/31 04:22:30;;;;;;;5.40;3.00;;;14.50;99.90;;;;;;4888365;29;20053;-64
2021/05/31 04:24:57;;;;;;;6.22;2.95;;;14.50;99.90;;;;;;4893439;29;20048;-64
2021/05/31 04:27:30;;;;;;;7.20;3.33;;;14.50;99.90;;;;;;4895734;29;20052;-64
2021/05/31 04:29:57;;;;;;;7.88;3.40;;;14.50;99.90;;;;;;4895421;29;20048;-64
2021/05/31 04:32:25;;;;;;;5.55;3.00;;;14.60;99.90;;;;;;4894805;29;20045;-64
2021/05/31 04:34:52;;;;;;;6.43;3.10;;;14.50;99.90;;;;;;4895785;29;20045;-64
2021/05/31 04:37:19;;;;;;;6.22;3.10;;;14.60;99.90;;;;;;4889594;29;20045;-64
2021/05/31 04:39:46;;;;;;;4.95;2.70;;;14.50;99.90;;;;;;4891006;29;20051;-64
2021/05/31 04:42:13;;;;;;;5.78;2.92;;;14.60;99.90;;;;;;4894902;29;20064;-64
2021/05/31 04:44:40;;;;;;;7.13;3.10;;;14.60;99.90;;;;;;4895193;29;20048;-64
2021/05/31 04:47:08;;;;;;;11.80;2.90;;;14.50;99.90;;;;;;4903854;29;20048;-64
2021/05/31 04:49:35;;;;;;;5.00;2.80;;;14.50;99.90;;;;;;4894727;29;20040;-64
2021/05/31 04:52:02;;;;;;;6.93;3.28;;;14.50;99.90;;;;;;4892226;29;20055;-64
2021/05/31 04:54:29;;;;;;;5.50;2.70;;;14.50;99.90;;;;;;4894551;29;20105;-64
2021/05/31 04:56:56;;;;;;;8.00;2.90;;;14.50;99.90;;;;;;4894374;29;20048;-64
2021/05/31 04:59:23;;;;;;;5.45;2.63;;;14.50;99.90;;;;;;4894470;29;20040;-64
2021/05/31 05:01:50;;;;;;;4.63;2.35;;;14.50;99.90;;;;;;4892677;29;20048;-64
2021/05/31 05:04:18;;;;;;;5.40;2.58;;;14.60;99.90;;;;;;4893258;29;20429;-64
2021/05/31 05:06:45;;;;;;;4.32;2.35;;;14.70;99.90;;;;;;4891773;29;20041;-64
2021/05/31 05:09:12;;;;;;;5.95;2.90;;;14.70;99.90;;;;;;4895863;29;20380;-64
2021/05/31 05:11:39;;;;;;;5.70;2.40;;;14.80;99.90;;;;;;4895124;29;20036;-64
2021/05/31 05:14:06;;;;;;;4.50;2.13;;;14.80;99.90;;;;;;4894225;29;20681;-64
2021/05/31 05:16:33;;;;;;;5.38;2.83;;;14.90;99.90;;;;;;4894754;29;20040;-64
2021/05/31 05:19:00;;;;;;;4.38;2.28;;;14.90;99.90;;;;;;4894854;29;20051;-64
2021/05/31 05:21:27;;;;;;;5.68;2.00;;;14.90;99.90;;;;;;4886874;29;20043;-64
2021/05/31 05:23:57;;;;;;;5.07;2.25;;;14.90;99.90;;;;;;4892654;29;20059;-64
2021/05/31 05:26:24;;;;;;;5.05;2.33;;;15.00;99.90;;;;;;4893159;29;20056;-64
2021/05/31 05:28:51;;;;;;;3.90;2.20;;;15.00;99.90;;;;;;4890165;29;20445;-64
2021/05/31 05:31:18;;;;;;;4.18;2.05;;;15.00;99.90;;;;;;4893979;29;20108;-64
2021/05/31 05:33:45;;;;;;;4.25;2.35;;;15.00;99.90;;;;;;4891929;29;20132;-64
2021/05/31 05:48:56;;;;;;;3.75;1.92;;;15.00;99.90;;;;;;4884850;29;20052;-64
2021/05/31 05:51:23;;;;;;;4.15;2.13;;;15.10;99.90;;;;;;4877349;29;20056;-64
2021/05/31 05:53:51;;;;;;;3.65;1.80;;;15.20;99.90;;;;;;4893630;29;20691;-64
2021/05/31 05:56:22;;;;;;;5.22;2.05;;;15.20;99.90;;;;;;4893264;29;20052;-64
2021/05/31 05:58:51;;;;;;;2.50;1.38;;;15.30;99.90;;;;;;4893726;29;20040;-64
2021/05/31 06:01:19;;;;;;;5.78;2.13;;;15.40;99.90;;;;;;4892254;29;20496;-64
2021/05/31 06:03:53;;;;;;;3.78;1.60;;;15.40;99.90;;;;;;4902052;29;20076;-64
2021/05/31 06:06:21;;;;;;;3.88;2.20;;;15.40;99.90;;;;;;4894837;29;20369;-63
2021/05/31 06:08:49;;;;;;;3.20;1.90;;;15.50;99.90;;;;;;4898866;29;20096;-63
2021/05/31 06:11:16;;;;;;;3.63;1.60;;;15.60;99.90;;;;;;4898557;29;20037;-63
2021/05/31 06:13:44;;;;;;;3.47;1.92;;;15.60;99.70;;;;;;4898682;29;20076;-63
2021/05/31 06:16:11;;;;;;;3.03;1.38;;;15.70;98.10;;;;;;4899262;29;20420;-63
2021/05/31 06:18:38;;;;;;;2.25;1.25;;;15.70;98.20;;;;;;4897739;29;20078;-63
2021/05/31 06:21:06;;;;;;;3.50;1.63;;;15.70;98.30;;;;;;4898906;29;20064;-63
2021/05/31 06:23:33;;;;;;;5.13;1.60;;;15.60;97.90;;;;;;4897087;29;20477;-63
2021/05/31 06:26:00;;;;;;;3.85;1.52;;;15.60;97.30;;;;;;4896552;29;20043;-63
2021/05/31 06:28:27;;;;;;;4.45;1.58;;;15.70;97.70;;;;;;4897135;29;20661;-63
2021/05/31 06:30:54;;;;;;;2.88;1.50;;;15.70;98.30;;;;;;4896803;29;20104;-63
2021/05/31 06:33:22;;;;;;;3.08;1.30;;;15.70;98.80;;;;;;4892313;29;20071;-63
2021/05/31 06:35:50;;;;;;;4.35;1.38;;;15.60;98.60;;;;;;4905094;29;20088;-63
2021/05/31 06:38:17;;;;;;;5.85;1.10;;;15.60;99.00;;;;;;4900209;29;20041;-63
2021/05/31 06:40:49;;;;;;;4.78;1.73;;;15.70;97.80;;;;;;4895407;29;20047;-63
2021/05/31 06:43:17;;;;;;;3.97;1.40;;;15.70;97.60;;;;;;4893288;29;20477;-63
2021/05/31 06:45:44;;;;;;;3.53;1.13;;;15.70;98.10;;;;;;4891337;29;20047;-63
2021/05/31 06:48:11;;;;;;;2.88;1.17;;;15.80;96.50;;;;;;4890873;29;20049;-63
2021/05/31 06:50:38;;;;;;;2.72;1.42;;;15.90;96.80;;;;;;4897037;29;20050;-63
2021/05/31 06:53:06;;;;;;;3.40;1.30;;;16.10;97.30;;;;;;4898271;29;20052;-63
2021/05/31 06:55:35;;;;;;;2.88;0.80;;;16.10;96.50;;;;;;4896853;29;20037;-63
2021/05/31 06:58:03;;;;;;;2.75;1.00;;;16.20;96.40;;;;;;4894448;29;20049;-63
2021/05/31 07:00:30;;;;;;;3.17;1.77;;;16.30;96.30;;;;;;4896021;29;20053;-63
2021/05/31 07:02:57;;;;;;;2.50;1.35;;;16.40;96.00;;;;;;4895625;29;20036;-63
2021/05/31 07:05:25;;;;;;;2.03;0.95;;;16.50;95.00;;;;;;4894989;29;20041;-63
2021/05/31 07:07:52;;;;;;;2.42;0.98;;;16.50;93.80;;;;;;4893967;29;20044;-63
2021/05/31 07:10:27;;;;;;;2.08;1.00;;;16.60;93.70;;;;;;4901568;29;20052;-63
2021/05/31 07:12:55;;;;;;;3.28;1.08;;;16.60;93.90;;;;;;4896592;29;20065;-63
2021/05/31 07:15:24;;;;;;;4.05;0.95;;;16.70;93.40;;;;;;4894693;29;20080;-63
2021/05/31 07:17:52;;;;;;;2.30;1.10;;;16.70;93.60;;;;;;4892773;29;20448;-63
2021/05/31 07:20:19;;;;;;;2.45;0.60;;;16.80;91.70;;;;;;4906254;29;20057;-63
2021/05/31 07:22:47;;;;;;;1.77;0.65;;;16.80;91.70;;;;;;4902479;29;20040;-63
2021/05/31 07:25:16;;;;;;;1.23;0.75;;;16.90;90.80;;;;;;4895685;29;20062;-63
2021/05/31 07:27:44;;;;;;;2.67;0.80;;;16.90;90.50;;;;;;4897868;29;20115;-63
2021/05/31 07:30:13;;;;;;;2.00;0.93;;;16.90;91.20;;;;;;4892997;29;20060;-63
2021/05/31 07:32:40;;;;;;;4.07;0.85;;;17.00;91.90;;;;;;4884951;29;20076;-63
2021/05/31 07:35:09;;;;;;;2.25;1.00;;;17.00;90.40;;;;;;4892609;29;20112;-63
2021/05/31 07:37:37;;;;;;;2.88;0.75;;;17.10;90.60;;;;;;4886043;29;20116;-63
2021/05/31 07:40:08;;;;;;;2.85;1.25;;;17.10;90.60;;;;;;4891244;29;20044;-63
2021/05/31 07:42:35;;;;;;;2.47;1.23;;;17.20;91.60;;;;;;4900546;29;20083;-63
2021/05/31 07:45:04;;;;;;;2.88;1.10;;;17.30;89.90;;;;;;4894508;29;20116;-64
2021/05/31 07:47:32;;;;;;;2.60;1.00;;;17.30;90.00;;;;;;4891706;29;20044;-63
2021/05/31 07:49:59;;;;;;;1.42;0.77;;;17.40;89.90;;;;;;4891566;29;20045;-64
2021/05/31 07:52:28;;;;;;;1.70;0.60;;;17.40;88.80;;;;;;4897150;29;20150;-65
2021/05/31 07:54:55;;;;;;;1.95;0.82;;;17.40;88.70;;;;;;4884952;29;20081;-64
2021/05/31 07:57:24;;;;;;;1.35;0.80;;;17.40;85.80;;;;;;4898339;29;20055;-64
2021/05/31 07:59:53;;;;;;;2.30;0.77;;;17.40;86.10;;;;;;4886072;29;20446;-63
2021/05/31 08:02:21;;;;;;;1.98;0.65;;;17.40;85.50;;;;;;4897458;29;20040;-63
2021/05/31 08:04:48;;;;;;;3.17;0.50;;;17.50;84.70;;;;;;4891230;29;20750;-64
2021/05/31 08:07:15;;;;;;;1.38;0.60;;;17.50;83.10;;;;;;4887161;29;20404;-65
2021/05/31 08:09:45;;;;;;;1.58;0.50;;;17.60;84.30;;;;;;4891257;29;20064;-63
2021/05/31 08:12:12;;;;;;;2.28;0.55;;;17.60;82.90;;;;;;4893857;29;20060;-63
2021/05/31 08:14:40;;;;;;;1.98;0.73;;;17.70;83.10;;;;;;4895356;29;20047;-63
2021/05/31 08:17:07;;;;;;;1.95;0.50;;;17.80;81.40;;;;;;4892165;29;20047;-63
2021/05/31 08:19:34;;;;;;;0.88;0.60;;;17.80;81.00;;;;;;4902411;29;20048;-63
2021/05/31 08:22:03;;;;;;;1.63;0.70;;;17.90;81.70;;;;;;4890469;29;20056;-64
2021/05/31 08:24:30;;;;;;;0.80;0.43;;;17.90;79.70;;;;;;4884257;29;20049;-63
2021/05/31 08:26:57;;;;;;;1.00;0.45;;;18.00;80.30;;;;;;4888405;29;20080;-63
2021/05/31 08:29:24;;;;;;;1.77;0.40;;;18.00;80.50;;;;;;4886879;29;20068;-63
2021/05/31 08:31:52;;;;;;;1.55;0.52;;;18.00;77.80;;;;;;4890498;29;20068;-63
2021/05/31 08:34:20;;;;;;;1.30;0.52;;;18.10;80.70;;;;;;4896191;29;20059;-63
2021/05/31 08:36:48;;;;;;;1.20;0.40;;;18.20;80.10;;;;;;4888427;29;20056;-63
2021/05/31 08:39:16;;;;;;;3.45;0.30;;;18.30;79.50;;;;;;4886262;29;20044;-63
2021/05/31 08:41:43;;;;;;;1.13;0.50;;;18.40;80.90;;;;;;4887795;29;20113;-63
2021/05/31 08:44:10;;;;;;;1.55;0.85;;;18.40;79.60;;;;;;4883863;29;20515;-64
2021/05/31 08:46:38;;;;;;;0.73;0.40;;;18.40;75.70;;;;;;4891659;29;20595;-64
2021/05/31 08:49:07;;;;;;;0.93;0.40;;;18.40;76.50;;;;;;4891248;29;20053;-64
2021/05/31 08:51:35;;;;;;;1.35;0.50;;;18.40;75.40;;;;;;4891913;29;20497;-65
2021/05/31 08:54:03;;;;;;;0.73;0.38;;;18.40;75.60;;;;;;4894087;29;20127;-64
2021/05/31 08:56:31;;;;;;;2.22;0.40;;;18.40;73.20;;;;;;4889005;29;20048;-64
2021/05/31 08:58:58;;;;;;;1.45;0.47;;;18.30;73.10;;;;;;4892357;29;20511;-64
2021/05/31 09:01:27;;;;;;;1.75;0.47;;;18.30;74.60;;;;;;4895353;29;20100;-64
2021/05/31 09:03:56;;;;;;;1.60;0.52;;;18.40;73.40;;;;;;4891296;29;20063;-65
2021/05/31 09:06:26;;;;;;;2.92;0.50;;;18.40;74.50;;;;;;4887207;29;20760;-64
2021/05/31 09:08:56;;;;;;;1.38;0.52;;;18.40;74.40;;;;;;4885272;29;20437;-64
2021/05/31 09:11:25;;;;;;;1.55;0.60;;;18.40;75.90;;;;;;4888135;29;20124;-64
2021/05/31 09:13:53;;;;;;;3.10;0.80;;;18.50;75.40;;;;;;4889674;29;20053;-64
2021/05/31 09:16:26;;;;;;;2.60;0.60;;;18.50;75.70;;;;;;4886855;29;20056;-63
2021/05/31 09:19:03;;;;;;;1.80;0.77;;;18.50;71.70;;;;;;4897570;29;20144;-64
2021/05/31 09:21:42;;;;;;;3.28;0.40;;;18.50;75.60;;;;;;4889635;29;20397;-64
2021/05/31 09:24:13;;;;;;;2.72;0.52;;;18.50;73.60;;;;;;4884067;29;20056;-64
2021/05/31 09:26:47;;;;;;;2.45;0.50;;;18.50;75.60;;;;;;4889028;29;20053;-64
2021/05/31 09:29:16;;;;;;;3.33;0.88;;;18.50;76.60;;;;;;4890679;29;20128;-63
2021/05/31 09:31:44;;;;;;;1.13;0.75;;;18.60;76.10;;;;;;4891057;29;20040;-63
2021/05/31 09:34:13;;;;;;;1.35;0.50;;;18.70;76.40;;;;;;4883151;29;20048;-64
2021/05/31 09:36:54;;;;;;;1.15;0.47;;;18.80;74.50;;;;;;4890603;29;20484;-64
2021/05/31 09:39:33;;;;;;;2.65;0.38;;;19.00;72.60;;;;;;4890799;29;20040;-68
2021/05/31 09:42:17;;;;;;;3.03;1.05;;;19.00;74.00;;;;;;4895862;29;20116;-65
2021/05/31 09:44:57;;;;;;;2.00;0.73;;;19.00;74.30;;;;;;4908862;29;20059;-65
2021/05/31 09:47:29;;;;;;;2.03;0.88;;;19.10;72.50;;;;;;4891729;29;20044;-64
2021/05/31 09:49:57;;;;;;;1.75;0.57;;;19.10;73.00;;;;;;4904713;29;20060;-63
2021/05/31 09:52:24;;;;;;;3.88;0.75;;;19.20;72.10;;;;;;4895403;29;20048;-67
2021/05/31 09:54:52;;;;;;;1.40;0.50;;;19.30;70.90;;;;;;4882764;29;20044;-67
2021/05/31 09:57:27;;;;;;;2.58;0.55;;;19.30;70.70;;;;;;4892936;29;20037;-66
2021/05/31 10:00:17;;;;;;;1.63;0.70;;;19.40;69.40;;;;;;4892752;29;20093;-66
2021/05/31 10:08:17;;;;;;;3.03;0.80;;;19.40;70.80;;;;;;4893678;29;20059;-66
2021/05/31 10:10:45;;;;;;;1.40;0.52;;;19.50;67.90;;;;;;4901092;29;20052;-67
2021/05/31 10:13:12;;;;;;;1.30;0.52;;;19.50;68.40;;;;;;4901433;29;20063;-68
2021/05/31 10:15:41;;;;;;;1.10;0.40;;;19.60;69.20;;;;;;4892978;29;20044;-66
2021/05/31 10:18:14;;;;;;;0.90;0.40;;;19.60;69.00;;;;;;4892228;29;20041;-65
2021/05/31 10:20:43;;;;;;;1.30;0.60;;;19.60;66.90;;;;;;4888329;29;20477;-66
2021/05/31 10:23:11;;;;;;;0.85;0.47;;;19.70;66.60;;;;;;4872060;29;20048;-66
2021/05/31 10:25:45;;;;;;;1.92;0.40;;;19.70;68.90;;;;;;4891157;29;20040;-66
2021/05/31 10:28:21;;;;;;;2.42;0.95;;;19.80;68.70;;;;;;4895201;29;20049;-68
2021/05/31 10:30:57;;;;;;;0.90;0.40;;;19.90;68.90;;;;;;4893097;29;20041;-66
2021/05/31 10:33:26;;;;;;;0.88;0.52;;;20.10;67.90;;;;;;4869780;29;20048;-66
2021/05/31 10:36:09;;;;;;;1.10;0.50;;;20.20;62.80;;;;;;4893553;29;20123;-66
2021/05/31 10:38:38;;;;;;;1.52;0.50;;;20.30;64.00;;;;;;4892420;29;20036;-66
2021/05/31 10:41:14;;;;;;;1.05;0.38;;;20.40;61.20;;;;;;4895628;29;20163;-66
2021/05/31 10:43:44;;;;;;;1.85;0.40;;;20.40;62.80;;;;;;4893220;29;20060;-67
2021/05/31 10:46:15;;;;;;;1.33;0.57;;;20.40;62.30;;;;;;4892254;29;20408;-67
2021/05/31 10:48:45;;;;;;;1.40;0.90;;;20.40;63.60;;;;;;4893947;29;20463;-67
2021/05/31 10:51:18;;;;;;;4.57;0.60;;;20.40;63.20;;;;;;4890142;29;20355;-63
2021/05/31 10:53:46;;;;;;;0.88;0.43;;;20.40;62.10;;;;;;4892687;29;20044;-63
2021/05/31 10:56:29;;;;;;;1.17;0.30;;;20.50;61.10;;;;;;4902714;29;20058;-63
2021/05/31 10:58:57;;;;;;;1.52;0.40;;;20.60;59.60;;;;;;4891109;29;20045;-63
2021/05/31 11:01:27;;;;;;;3.40;0.55;;;20.70;60.40;;;;;;4893875;29;20091;-63
2021/05/31 11:04:03;;;;;;;1.55;0.50;;;20.70;59.60;;;;;;4894195;29;20043;-62
2021/05/31 11:06:37;;;;;;;1.23;0.35;;;20.80;61.40;;;;;;4898749;29;20044;-63
2021/05/31 11:09:19;;;;;;;3.35;0.47;;;21.00;61.10;;;;;;4895363;29;20044;-63
2021/05/31 11:11:50;;;;;;;1.25;0.30;;;21.10;58.80;;;;;;4888437;29;20428;-63
2021/05/31 11:14:37;;;;;;;5.00;0.50;;;21.10;60.00;;;;;;4894270;29;20051;-63
2021/05/31 11:17:08;;;;;;;0.75;0.60;;;20.90;58.90;;;;;;4888221;29;21090;-63
2021/05/31 11:19:37;;;;;;;1.75;0.47;;;20.80;58.10;;;;;;4895188;29;20055;-62
2021/05/31 11:22:22;;;;;;;2.67;0.50;;;20.60;56.80;;;;;;4873281;29;20567;-63
2021/05/31 11:25:01;;;;;;;132.43;9.35;;;20.30;52.60;;;;;;4894391;29;20040;-64
2021/05/31 11:27:36;;;;;;;1.98;0.30;;;20.10;55.00;;;;;;4900822;29;20158;-64
2021/05/31 11:30:05;;;;;;;3.60;0.30;;;20.00;55.10;;;;;;4895190;29;20052;-66
2021/05/31 11:32:33;;;;;;;1.95;0.60;;;20.10;56.40;;;;;;4901802;29;20048;-63
2021/05/31 11:35:02;;;;;;;1.45;0.30;;;20.10;56.50;;;;;;4894953;29;20042;-63
2021/05/31 11:37:51;;;;;;;4.45;0.77;;;20.10;56.20;;;;;;4883861;29;20041;-64
2021/05/31 11:40:24;;;;;;;10.55;1.90;;;19.90;56.40;;;;;;4893977;29;20041;-64
2021/05/31 11:43:15;;;;;;;7.63;0.40;;;19.80;56.90;;;;;;4905157;29;20063;-64
2021/05/31 11:45:46;;;;;;;;;;;19.60;55.90;;;;;;4898579;29;20037;-63
2021/05/31 11:48:17;;;;;;;5.18;1.00;;;19.40;56.40;;;;;;4897999;29;19928;-64
2021/05/31 11:50:46;;;;;;;27.83;3.30;;;19.40;56.80;;;;;;4888279;29;20956;-64
2021/05/31 11:53:16;;;;;;;7.95;3.67;;;19.40;58.90;;;;;;4896164;29;20067;-64
2021/05/31 11:55:45;;;;;;;16.85;4.47;;;19.80;57.80;;;;;;4895070;29;20048;-63
2021/05/31 11:58:12;;;;;;;11.38;2.63;;;20.30;59.20;;;;;;4894638;29;20505;-64
2021/05/31 12:00:42;;;;;;;1.67;0.80;;;20.80;56.60;;;;;;4903897;29;20055;-66
2021/05/31 12:03:21;;;;;;;9.63;0.93;;;21.30;56.60;;;;;;4898859;29;20055;-63
2021/05/31 12:05:53;;;;;;;2.35;0.50;;;22.40;56.90;;;;;;4896783;29;20037;-63
2021/05/31 12:08:22;;;;;;;1.58;0.70;;;23.60;53.00;;;;;;4887161;29;20079;-63
2021/05/31 12:10:50;;;;;;;21.25;1.42;;;23.80;50.30;;;;;;4898019;29;20135;-63
2021/05/31 12:13:17;;;;;;;4.68;0.60;;;23.70;51.00;;;;;;4896551;29;20048;-64
2021/05/31 12:15:44;;;;;;;11.18;1.20;;;23.90;54.30;;;;;;4896123;29;20100;-64
2021/05/31 12:18:20;;;;;;;13.45;0.80;;;23.70;54.70;;;;;;4896471;29;20192;-64
2021/05/31 12:20:47;;;;;;;12.50;1.83;;;23.50;52.70;;;;;;4896461;29;20058;-63
2021/05/31 12:23:19;;;;;;;33.53;3.33;;;23.10;52.80;;;;;;4896363;29;20064;-63
2021/05/31 12:25:47;;;;;;;8.85;1.13;;;22.60;55.00;;;;;;4889703;29;20040;-63
2021/05/31 12:28:15;;;;;;;9.32;0.73;;;22.00;57.30;;;;;;4893402;29;20399;-63
2021/05/31 12:30:51;;;;;;;39.00;3.92;;;21.40;58.20;;;;;;4894415;29;20044;-63
2021/05/31 12:33:18;;;;;;;7.35;0.73;;;21.00;58.10;;;;;;4894879;29;20041;-63
2021/05/31 12:35:47;;;;;;;14.00;0.85;;;20.60;57.40;;;;;;4897319;29;20052;-63
2021/05/31 12:38:17;;;;;;;62.17;4.90;;;20.40;58.40;;;;;;4892456;29;20037;-63
2021/05/31 12:40:45;;;;;;;19.48;2.25;;;20.20;59.90;;;;;;4889983;29;20040;-61
2021/05/31 12:43:12;;;;;;;9.70;0.75;;;20.20;60.70;;;;;;4896546;29;20080;-60
2021/05/31 12:45:49;;;;;;;64.45;4.03;;;20.30;59.50;;;;;;4893564;29;20044;-57
2021/05/31 12:48:18;;;;;;;16.83;1.80;;;20.30;61.80;;;;;;4893873;29;20537;-56
2021/05/31 12:50:50;;;;;;;76.68;4.93;;;20.20;61.70;;;;;;4900335;29;20066;-57
2021/05/31 12:53:18;;;;;;;21.23;3.10;;;20.30;60.30;;;;;;4902731;29;20058;-57
2021/05/31 12:55:45;;;;;;;2.03;0.40;;;20.70;62.30;;;;;;4881677;29;20476;-57
2021/05/31 12:58:20;;;;;;;19.25;0.77;;;21.10;61.90;;;;;;4896371;29;20048;-57
2021/05/31 13:00:48;;;;;;;116.43;18.10;;;21.20;61.70;;;;;;4899717;29;20044;-57
2021/05/31 13:03:17;;;;;;;1.40;0.50;;;21.10;59.70;;;;;;4901811;29;20048;-57
2021/05/31 13:05:49;;;;;;;0.55;0.20;;;21.10;59.20;;;;;;4896673;29;20624;-57
2021/05/31 13:08:18;;;;;;;10.60;0.70;;;20.80;58.60;;;;;;4893220;29;20061;-57
2021/05/31 13:10:48;;;;;;;59.63;3.85;;;20.70;59.80;;;;;;4902086;29;20135;-60
2021/05/31 13:13:20;;;;;;;43.10;4.53;;;20.40;60.50;;;;;;4895400;29;20527;-61
2021/05/31 13:15:55;;;;;;;18.13;2.60;;;20.00;60.30;;;;;;4895551;29;20068;-62
2021/05/31 13:18:30;;;;;;;2.25;0.68;;;19.80;63.90;;;;;;4893395;29;20527;-63
2021/05/31 13:21:06;;;;;;;1.10;0.25;;;19.70;63.10;;;;;;4898143;29;20037;-63
2021/05/31 13:23:36;;;;;;;1.85;0.43;;;19.90;62.30;;;;;;4883648;29;20393;-63